createdAt,value
2023-04-22T00:00:37.900Z,0.00
2023-04-22T00:01:37.640Z,0.00
2023-04-22T00:02:37.763Z,0.00
2023-04-22T00:03:37.833Z,0.00
2023-04-22T00:04:37.922Z,0.00
2023-04-22T00:05:38.096Z,0.00
2023-04-22T00:06:37.406Z,0.00
2023-04-22T00:07:37.363Z,0.00
2023-04-22T00:08:37.646Z,0.00
2023-04-22T00:09:37.587Z,0.00
2023-04-22T00:10:37.408Z,0.00
2023-04-22T00:11:37.373Z,0.00
2023-04-22T00:12:37.133Z,0.00
2023-04-22T00:13:37.180Z,0.00
2023-04-22T00:14:37.040Z,0.00
2023-04-22T00:15:37.403Z,0.00
2023-04-22T00:16:37.053Z,0.00
2023-04-22T00:17:37.091Z,0.00
2023-04-22T00:18:36.866Z,0.00
2023-04-22T00:19:37.228Z,0.00
2023-04-22T00:20:36.818Z,0.00
2023-04-22T00:21:36.720Z,0.00
2023-04-22T00:22:36.826Z,0.00
2023-04-22T00:23:36.643Z,0.00
2023-04-22T00:24:36.570Z,0.00
2023-04-22T00:25:36.574Z,0.00
2023-04-22T00:26:36.662Z,0.00
2023-04-22T00:27:36.716Z,0.00
2023-04-22T00:28:36.485Z,0.00
2023-04-22T00:29:36.678Z,0.00
2023-04-22T00:30:36.333Z,0.00
2023-04-22T00:31:36.312Z,0.00
2023-04-22T00:32:36.293Z,0.00
2023-04-22T00:33:36.151Z,0.00
2023-04-22T00:34:36.504Z,0.00
2023-04-22T00:35:36.057Z,0.00
2023-04-22T00:36:36.022Z,0.00
2023-04-22T00:37:36.120Z,0.00
2023-04-22T00:38:35.917Z,0.00
2023-04-22T00:39:36.132Z,0.00
2023-04-22T00:40:35.989Z,0.00
2023-04-22T00:41:35.774Z,0.00
2023-04-22T00:42:35.731Z,0.00
2023-04-22T00:43:35.755Z,0.00
2023-04-22T00:44:35.638Z,0.00
2023-04-22T00:45:35.772Z,0.00
2023-04-22T00:46:35.581Z,0.00
2023-04-22T00:47:35.509Z,0.00
2023-04-22T00:48:35.583Z,0.00
2023-04-22T00:49:35.401Z,0.00
2023-04-22T00:50:35.610Z,0.00
2023-04-22T00:51:35.360Z,0.00
2023-04-22T00:52:35.636Z,0.00
2023-04-22T00:53:35.218Z,0.00
2023-04-22T00:54:35.429Z,0.00
2023-04-22T00:55:35.123Z,0.00
2023-04-22T00:56:35.232Z,0.00
2023-04-22T00:57:35.042Z,0.00
2023-04-22T00:58:35.019Z,0.00
2023-04-22T00:59:34.941Z,0.00
2023-04-22T01:00:35.130Z,0.00
2023-04-22T01:01:35.160Z,0.00
2023-04-22T01:02:34.980Z,0.00
2023-04-22T01:03:34.934Z,0.00
2023-04-22T01:04:34.712Z,0.00
2023-04-22T01:05:34.657Z,0.00
2023-04-22T01:06:34.898Z,0.00
2023-04-22T01:07:34.573Z,0.00
2023-04-22T01:08:34.705Z,0.00
2023-04-22T01:09:34.465Z,0.00
2023-04-22T01:10:34.425Z,0.00
2023-04-22T01:11:34.525Z,0.00
2023-04-22T01:12:34.587Z,0.00
2023-04-22T01:13:34.539Z,0.00
2023-04-22T01:14:34.234Z,0.00
2023-04-22T01:15:34.359Z,0.00
2023-04-22T01:16:34.196Z,0.00
2023-04-22T01:17:34.431Z,0.00
2023-04-22T01:18:34.064Z,0.00
2023-04-22T01:19:34.178Z,0.00
2023-04-22T01:20:33.964Z,0.00
2023-04-22T01:21:33.915Z,0.00
2023-04-22T01:22:33.856Z,0.00
2023-04-22T01:23:34.000Z,0.00
2023-04-22T01:24:34.055Z,0.00
2023-04-22T01:25:33.809Z,0.00
2023-04-22T01:26:33.671Z,0.00
2023-04-22T01:27:33.639Z,0.00
2023-04-22T01:28:33.577Z,0.00
2023-04-22T01:29:33.641Z,0.00
2023-04-22T01:30:33.512Z,0.00
2023-04-22T01:31:33.698Z,0.00
2023-04-22T01:32:33.422Z,0.00
2023-04-22T01:33:33.341Z,0.00
2023-04-22T01:34:33.483Z,0.00
2023-04-22T01:35:33.535Z,0.00
2023-04-22T01:36:33.281Z,0.00
2023-04-22T01:37:33.159Z,0.00
2023-04-22T01:38:33.107Z,0.00
2023-04-22T01:39:33.063Z,0.00
2023-04-22T01:40:33.106Z,0.00
2023-04-22T01:41:32.994Z,0.00
2023-04-22T01:42:33.142Z,0.00
2023-04-22T01:43:33.182Z,0.00
2023-04-22T01:44:32.822Z,0.00
2023-04-22T01:45:32.783Z,0.00
2023-04-22T01:46:33.059Z,0.00
2023-04-22T01:47:32.725Z,0.00
2023-04-22T01:48:32.776Z,0.00
2023-04-22T01:49:32.632Z,0.00
2023-04-22T01:50:32.542Z,0.00
2023-04-22T01:51:32.815Z,0.00
2023-04-22T01:52:32.450Z,0.00
2023-04-22T01:53:32.588Z,0.00
2023-04-22T01:54:32.355Z,0.00
2023-04-22T01:55:32.442Z,0.00
2023-04-22T01:56:32.260Z,0.00
2023-04-22T01:57:32.426Z,0.00
2023-04-22T01:58:32.170Z,0.00
2023-04-22T01:59:32.219Z,0.00
2023-04-22T02:00:32.092Z,0.00
2023-04-22T02:01:32.207Z,0.00
2023-04-22T02:02:32.329Z,0.00
2023-04-22T02:03:32.169Z,0.00
2023-04-22T02:04:32.098Z,0.00
2023-04-22T02:05:31.849Z,0.00
2023-04-22T02:06:32.073Z,0.00
2023-04-22T02:07:31.749Z,0.00
2023-04-22T02:08:31.881Z,0.00
2023-04-22T02:09:31.671Z,0.00
2023-04-22T02:10:31.689Z,0.00
2023-04-22T02:11:31.571Z,0.00
2023-04-22T02:12:31.754Z,0.00
2023-04-22T02:13:31.455Z,0.00
2023-04-22T02:14:31.520Z,0.00
2023-04-22T02:15:31.428Z,0.00
2023-04-22T02:16:31.571Z,0.00
2023-04-22T02:17:31.266Z,0.00
2023-04-22T02:18:31.254Z,0.00
2023-04-22T02:19:31.582Z,0.00
2023-04-22T02:20:31.119Z,0.00
2023-04-22T02:21:31.356Z,0.00
2023-04-22T02:22:31.064Z,0.00
2023-04-22T02:23:31.168Z,0.00
2023-04-22T02:24:30.936Z,0.00
2023-04-22T02:25:30.987Z,0.00
2023-04-22T02:26:30.874Z,0.00
2023-04-22T02:27:30.990Z,0.00
2023-04-22T02:28:31.050Z,0.00
2023-04-22T02:29:30.708Z,0.00
2023-04-22T02:30:30.658Z,0.00
2023-04-22T02:31:30.871Z,0.00
2023-04-22T02:32:30.614Z,0.00
2023-04-22T02:33:30.628Z,0.00
2023-04-22T02:34:30.482Z,0.00
2023-04-22T02:35:30.412Z,0.00
2023-04-22T02:36:30.647Z,0.00
2023-04-22T02:37:30.344Z,0.00
2023-04-22T02:38:30.456Z,0.00
2023-04-22T02:39:30.227Z,0.00
2023-04-22T02:40:30.475Z,0.00
2023-04-22T02:41:30.142Z,0.00
2023-04-22T02:42:30.290Z,0.00
2023-04-22T02:43:30.038Z,0.00
2023-04-22T02:44:30.096Z,0.00
2023-04-22T02:45:29.950Z,0.00
2023-04-22T02:46:29.948Z,0.00
2023-04-22T02:47:29.872Z,0.00
2023-04-22T02:48:29.916Z,0.00
2023-04-22T02:49:29.756Z,0.00
2023-04-22T02:50:29.929Z,0.00
2023-04-22T02:51:29.658Z,0.00
2023-04-22T02:52:29.791Z,0.00
2023-04-22T02:53:29.760Z,0.00
2023-04-22T02:54:29.515Z,0.00
2023-04-22T02:55:29.779Z,0.00
2023-04-22T02:56:29.485Z,0.00
2023-04-22T02:57:29.580Z,0.00
2023-04-22T02:58:29.330Z,0.00
2023-04-22T02:59:29.381Z,0.00
2023-04-22T03:00:29.260Z,0.00
2023-04-22T03:01:29.552Z,0.00
2023-04-22T03:02:29.493Z,0.00
2023-04-22T03:03:29.192Z,0.00
2023-04-22T03:04:29.134Z,0.00
2023-04-22T03:05:29.228Z,0.00
2023-04-22T03:06:28.948Z,0.00
2023-04-22T03:07:29.235Z,0.00
2023-04-22T03:08:28.858Z,0.00
2023-04-22T03:09:28.806Z,0.00
2023-04-22T03:10:29.059Z,0.00
2023-04-22T03:11:28.714Z,0.00
2023-04-22T03:12:28.865Z,0.00
2023-04-22T03:13:28.653Z,0.00
2023-04-22T03:14:28.672Z,0.00
2023-04-22T03:15:28.529Z,0.00
2023-04-22T03:16:28.935Z,0.00
2023-04-22T03:17:28.438Z,0.00
2023-04-22T03:18:28.497Z,0.00
2023-04-22T03:19:28.345Z,0.00
2023-04-22T03:20:28.313Z,0.00
2023-04-22T03:21:28.250Z,0.00
2023-04-22T03:22:28.330Z,0.00
2023-04-22T03:23:28.149Z,0.00
2023-04-22T03:24:28.346Z,0.00
2023-04-22T03:25:28.054Z,0.00
2023-04-22T03:26:28.406Z,0.00
2023-04-22T03:27:28.157Z,0.00
2023-04-22T03:28:27.920Z,0.00
2023-04-22T03:29:27.980Z,0.00
2023-04-22T03:30:27.816Z,0.00
2023-04-22T03:31:28.058Z,0.00
2023-04-22T03:32:27.774Z,0.00
2023-04-22T03:33:27.794Z,0.00
2023-04-22T03:34:27.628Z,0.00
2023-04-22T03:35:27.805Z,0.00
2023-04-22T03:36:27.545Z,0.00
2023-04-22T03:37:27.487Z,0.00
2023-04-22T03:38:27.676Z,0.00
2023-04-22T03:39:27.642Z,0.00
2023-04-22T03:40:27.343Z,0.00
2023-04-22T03:41:27.455Z,0.00
2023-04-22T03:42:27.257Z,0.00
2023-04-22T03:43:27.205Z,0.00
2023-04-22T03:44:27.463Z,0.00
2023-04-22T03:45:27.126Z,0.00
2023-04-22T03:46:27.332Z,0.00
2023-04-22T03:47:27.054Z,0.00
2023-04-22T03:48:27.085Z,0.00
2023-04-22T03:49:26.923Z,0.00
2023-04-22T03:50:28.334Z,0.00
2023-04-22T03:51:26.830Z,0.00
2023-04-22T03:52:26.914Z,0.00
2023-04-22T03:53:26.740Z,0.00
2023-04-22T03:54:26.680Z,0.00
2023-04-22T03:55:26.633Z,0.00
2023-04-22T03:56:26.749Z,0.00
2023-04-22T03:57:26.547Z,0.00
2023-04-22T03:58:26.744Z,0.00
2023-04-22T03:59:26.602Z,0.00
2023-04-22T04:00:26.401Z,0.00
2023-04-22T04:01:26.578Z,0.00
2023-04-22T04:02:26.438Z,0.00
2023-04-22T04:03:28.036Z,0.00
2023-04-22T04:04:26.528Z,0.00
2023-04-22T04:05:26.470Z,0.00
2023-04-22T04:06:26.114Z,0.00
2023-04-22T04:07:26.205Z,0.00
2023-04-22T04:08:26.030Z,0.00
2023-04-22T04:09:26.218Z,0.00
2023-04-22T04:10:25.929Z,0.00
2023-04-22T04:11:26.076Z,0.00
2023-04-22T04:12:25.837Z,0.00
2023-04-22T04:13:26.053Z,0.00
2023-04-22T04:14:25.749Z,0.00
2023-04-22T04:15:26.884Z,0.00
2023-04-22T04:16:25.707Z,0.00
2023-04-22T04:17:25.720Z,0.00
2023-04-22T04:18:25.688Z,0.00
2023-04-22T04:19:25.497Z,5.63
2023-04-22T04:20:25.704Z,5.63
2023-04-22T04:21:25.421Z,5.63
2023-04-22T04:22:25.372Z,5.63
2023-04-22T04:23:25.550Z,5.63
2023-04-22T04:24:25.512Z,5.63
2023-04-22T04:25:25.217Z,11.25
2023-04-22T04:26:25.315Z,11.25
2023-04-22T04:27:25.116Z,11.25
2023-04-22T04:28:25.077Z,16.88
2023-04-22T04:29:25.354Z,16.88
2023-04-22T04:30:24.984Z,16.88
2023-04-22T04:31:25.186Z,22.50
2023-04-22T04:32:24.918Z,22.50
2023-04-22T04:33:24.955Z,22.50
2023-04-22T04:34:24.785Z,28.13
2023-04-22T04:35:25.022Z,28.13
2023-04-22T04:36:24.979Z,28.13
2023-04-22T04:37:24.650Z,33.75
2023-04-22T04:38:24.785Z,33.75
2023-04-22T04:39:24.543Z,39.38
2023-04-22T04:40:24.800Z,39.38
2023-04-22T04:41:24.476Z,45.00
2023-04-22T04:42:24.637Z,45.00
2023-04-22T04:43:24.368Z,50.63
2023-04-22T04:44:24.830Z,56.25
2023-04-22T04:45:24.259Z,56.25
2023-04-22T04:46:24.451Z,61.88
2023-04-22T04:47:24.181Z,61.88
2023-04-22T04:48:25.269Z,67.50
2023-04-22T04:49:24.072Z,73.13
2023-04-22T04:50:24.282Z,78.75
2023-04-22T04:51:23.977Z,84.38
2023-04-22T04:52:24.077Z,90.00
2023-04-22T04:53:23.884Z,95.63
2023-04-22T04:54:24.081Z,95.63
2023-04-22T04:55:23.780Z,101.25
2023-04-22T04:56:24.162Z,112.50
2023-04-22T04:57:23.691Z,118.13
2023-04-22T04:58:23.917Z,123.75
2023-04-22T04:59:23.608Z,129.38
2023-04-22T05:00:23.722Z,140.63
2023-04-22T05:01:23.570Z,151.88
2023-04-22T05:02:23.800Z,157.50
2023-04-22T05:03:23.532Z,168.75
2023-04-22T05:04:23.663Z,185.63
2023-04-22T05:05:23.321Z,196.88
2023-04-22T05:06:23.560Z,202.50
2023-04-22T05:07:23.237Z,213.75
2023-04-22T05:08:23.327Z,219.38
2023-04-22T05:09:23.134Z,219.38
2023-04-22T05:10:23.293Z,225.00
2023-04-22T05:11:23.048Z,236.25
2023-04-22T05:12:23.095Z,236.25
2023-04-22T05:13:22.943Z,230.63
2023-04-22T05:14:22.919Z,241.88
2023-04-22T05:15:22.909Z,241.88
2023-04-22T05:16:22.851Z,236.25
2023-04-22T05:17:22.961Z,236.25
2023-04-22T05:18:22.708Z,241.88
2023-04-22T05:19:22.738Z,247.50
2023-04-22T05:20:22.659Z,253.13
2023-04-22T05:21:22.964Z,258.75
2023-04-22T05:22:22.640Z,270.00
2023-04-22T05:23:22.714Z,286.88
2023-04-22T05:24:22.446Z,286.88
2023-04-22T05:25:22.397Z,292.50
2023-04-22T05:26:23.406Z,315.00
2023-04-22T05:27:22.478Z,326.25
2023-04-22T05:28:22.456Z,331.88
2023-04-22T05:29:22.190Z,337.50
2023-04-22T05:30:22.224Z,360.00
2023-04-22T05:31:22.321Z,399.38
2023-04-22T05:32:22.286Z,405.00
2023-04-22T05:33:22.046Z,382.50
2023-04-22T05:34:22.035Z,393.75
2023-04-22T05:35:21.908Z,393.75
2023-04-22T05:36:22.045Z,393.75
2023-04-22T05:37:21.813Z,365.63
2023-04-22T05:38:21.860Z,337.50
2023-04-22T05:39:21.919Z,326.25
2023-04-22T05:40:21.866Z,320.63
2023-04-22T05:41:21.625Z,315.00
2023-04-22T05:42:21.583Z,292.50
2023-04-22T05:43:21.532Z,275.63
2023-04-22T05:44:21.693Z,270.00
2023-04-22T05:45:21.452Z,275.63
2023-04-22T05:46:21.546Z,275.63
2023-04-22T05:47:21.390Z,258.75
2023-04-22T05:48:21.362Z,253.13
2023-04-22T05:49:21.253Z,258.75
2023-04-22T05:50:23.341Z,270.00
2023-04-22T05:51:21.166Z,270.00
2023-04-22T05:52:21.340Z,253.13
2023-04-22T05:53:21.069Z,253.13
2023-04-22T05:54:21.359Z,264.38
2023-04-22T05:55:21.217Z,275.63
2023-04-22T05:56:21.167Z,275.63
2023-04-22T05:57:20.903Z,275.63
2023-04-22T05:58:20.977Z,281.25
2023-04-22T05:59:21.746Z,309.38
2023-04-22T06:03:47.976Z,433.13
2023-04-22T06:04:47.396Z,455.63
2023-04-22T06:05:47.404Z,371.25
2023-04-22T06:06:47.150Z,382.50
2023-04-22T06:07:47.160Z,461.25
2023-04-22T06:08:47.056Z,551.25
2023-04-22T06:09:47.174Z,568.13
2023-04-22T06:10:47.182Z,478.13
2023-04-22T06:11:46.913Z,511.88
2023-04-22T06:12:46.997Z,624.38
2023-04-22T06:13:46.824Z,714.38
2023-04-22T06:14:46.798Z,635.63
2023-04-22T06:15:46.889Z,405.00
2023-04-22T06:16:46.673Z,416.25
2023-04-22T06:17:46.834Z,590.63
2023-04-22T06:18:46.592Z,551.25
2023-04-22T06:19:46.628Z,556.88
2023-04-22T06:20:46.493Z,556.88
2023-04-22T06:21:46.645Z,697.50
2023-04-22T06:22:46.414Z,697.50
2023-04-22T06:23:46.454Z,618.75
2023-04-22T06:24:47.720Z,635.63
2023-04-22T06:25:46.678Z,804.38
2023-04-22T06:26:46.222Z,838.13
2023-04-22T06:27:46.182Z,669.38
2023-04-22T06:28:46.123Z,675.00
2023-04-22T06:29:46.310Z,860.63
2023-04-22T06:30:46.036Z,804.38
2023-04-22T06:31:46.375Z,731.25
2023-04-22T06:32:46.022Z,793.13
2023-04-22T06:33:45.895Z,753.75
2023-04-22T06:34:46.021Z,697.50
2023-04-22T06:35:45.937Z,646.88
2023-04-22T06:36:45.763Z,551.25
2023-04-22T06:37:45.946Z,528.75
2023-04-22T06:38:45.675Z,534.38
2023-04-22T06:39:45.659Z,534.38
2023-04-22T06:40:45.599Z,517.50
2023-04-22T06:41:45.791Z,551.25
2023-04-22T06:42:45.496Z,720.00
2023-04-22T06:43:45.778Z,601.88
2023-04-22T06:44:45.404Z,596.25
2023-04-22T06:45:45.591Z,607.50
2023-04-22T06:46:45.341Z,624.38
2023-04-22T06:47:45.418Z,753.75
2023-04-22T06:48:45.229Z,759.38
2023-04-22T06:49:45.423Z,714.38
2023-04-22T06:50:45.149Z,708.75
2023-04-22T06:51:45.433Z,720.00
2023-04-22T06:52:45.049Z,753.75
2023-04-22T06:53:45.238Z,776.25
2023-04-22T06:54:44.973Z,753.75
2023-04-22T06:55:45.048Z,742.50
2023-04-22T06:56:44.895Z,680.63
2023-04-22T06:57:45.066Z,686.25
2023-04-22T06:58:44.923Z,675.00
2023-04-22T07:01:16.078Z,630.00
2023-04-22T07:02:23.846Z,646.88
2023-04-22T07:03:16.141Z,691.88
2023-04-22T07:04:15.993Z,708.75
2023-04-22T07:05:16.048Z,680.63
2023-04-22T07:06:15.855Z,663.75
2023-04-22T07:07:15.849Z,630.00
2023-04-22T07:08:15.906Z,613.13
2023-04-22T07:09:15.873Z,596.25
2023-04-22T07:10:15.690Z,590.63
2023-04-22T07:11:15.683Z,573.75
2023-04-22T07:12:15.593Z,562.50
2023-04-22T07:13:15.697Z,562.50
2023-04-22T07:14:15.741Z,562.50
2023-04-22T07:15:15.704Z,556.88
2023-04-22T07:16:15.429Z,545.63
2023-04-22T07:17:15.376Z,568.13
2023-04-22T07:18:15.528Z,579.38
2023-04-22T07:19:15.320Z,601.88
2023-04-22T07:20:15.264Z,624.38
2023-04-22T07:21:15.361Z,646.88
2023-04-22T07:22:15.149Z,686.25
2023-04-22T07:23:15.163Z,753.75
2023-04-22T07:24:15.066Z,849.38
2023-04-22T07:25:15.021Z,922.50
2023-04-22T07:26:15.098Z,1080.00
2023-04-22T07:27:14.971Z,1209.38
2023-04-22T07:28:14.883Z,1288.13
2023-04-22T07:29:14.983Z,1338.75
2023-04-22T07:30:14.804Z,1395.00
2023-04-22T07:31:14.801Z,1428.75
2023-04-22T07:32:14.847Z,1383.75
2023-04-22T07:33:14.823Z,1395.00
2023-04-22T07:34:14.626Z,1372.50
2023-04-22T07:35:14.623Z,1361.25
2023-04-22T07:36:14.639Z,1305.00
2023-04-22T07:37:14.495Z,1282.50
2023-04-22T07:38:14.815Z,1192.50
2023-04-22T07:39:14.400Z,1130.63
2023-04-22T07:40:14.453Z,1063.13
2023-04-22T07:41:14.321Z,1046.25
2023-04-22T07:42:14.269Z,1063.13
2023-04-22T07:43:14.254Z,1080.00
2023-04-22T07:44:14.488Z,1091.25
2023-04-22T07:45:14.174Z,1096.88
2023-04-22T07:46:14.328Z,1113.75
2023-04-22T07:47:14.063Z,1125.00
2023-04-22T07:48:14.019Z,1119.38
2023-04-22T07:49:14.376Z,1057.50
2023-04-22T07:50:13.939Z,995.63
2023-04-22T07:51:14.120Z,961.88
2023-04-22T07:52:13.848Z,973.13
2023-04-22T07:53:13.934Z,1023.75
2023-04-22T07:54:13.764Z,1096.88
2023-04-22T07:55:13.948Z,1175.63
2023-04-22T07:56:13.702Z,1226.25
2023-04-22T07:57:13.790Z,1254.38
2023-04-22T07:58:13.821Z,1237.50
2023-04-22T07:59:13.556Z,1231.88
2023-04-22T08:00:13.585Z,1209.38
2023-04-22T08:01:13.641Z,1209.38
2023-04-22T08:02:13.521Z,1215.00
2023-04-22T08:03:13.783Z,1265.63
2023-04-22T08:04:13.451Z,1299.38
2023-04-22T08:05:13.362Z,1305.00
2023-04-22T08:06:13.434Z,1288.13
2023-04-22T08:07:30.873Z,1327.50
2023-04-22T08:08:13.176Z,1198.13
2023-04-22T08:09:13.445Z,1198.13
2023-04-22T08:10:13.092Z,1158.75
2023-04-22T08:11:13.056Z,1181.25
2023-04-22T08:12:13.255Z,1243.13
2023-04-22T08:13:12.975Z,1293.75
2023-04-22T08:14:13.067Z,1366.88
2023-04-22T08:15:12.899Z,1434.38
2023-04-22T08:16:12.926Z,1496.25
2023-04-22T08:17:12.802Z,1597.50
2023-04-22T08:18:12.910Z,1513.13
2023-04-22T08:19:12.737Z,1563.75
2023-04-22T08:20:12.909Z,1558.13
2023-04-22T08:21:12.764Z,1462.50
2023-04-22T08:22:12.597Z,1428.75
2023-04-22T08:23:12.554Z,1434.38
2023-04-22T08:24:12.739Z,1451.25
2023-04-22T08:25:12.480Z,1462.50
2023-04-22T08:26:12.546Z,1535.63
2023-04-22T08:27:12.427Z,1648.13
2023-04-22T08:28:12.354Z,1575.00
2023-04-22T08:29:12.369Z,1366.88
2023-04-22T08:30:12.278Z,1254.38
2023-04-22T08:31:12.410Z,1231.88
2023-04-22T08:32:12.181Z,1288.13
2023-04-22T08:33:12.392Z,1260.00
2023-04-22T08:34:12.108Z,1186.88
2023-04-22T08:35:12.204Z,1153.13
2023-04-22T08:36:12.197Z,1153.13
2023-04-22T08:37:12.218Z,1147.50
2023-04-22T08:38:11.939Z,1153.13
2023-04-22T08:39:11.905Z,1158.75
2023-04-22T08:40:11.853Z,1181.25
2023-04-22T08:41:12.039Z,1186.88
2023-04-22T08:42:11.892Z,1198.13
2023-04-22T08:43:11.849Z,1181.25
2023-04-22T08:44:11.698Z,1186.88
2023-04-22T08:45:11.657Z,1198.13
2023-04-22T08:46:11.658Z,1215.00
2023-04-22T08:47:11.876Z,1237.50
2023-04-22T08:48:11.534Z,1248.75
2023-04-22T08:49:11.692Z,1271.25
2023-04-22T08:50:11.474Z,1265.63
2023-04-22T08:51:11.412Z,1265.63
2023-04-22T08:52:11.709Z,1282.50
2023-04-22T08:53:11.337Z,1288.13
2023-04-22T08:54:11.532Z,1327.50
2023-04-22T08:55:11.253Z,1333.13
2023-04-22T08:56:11.220Z,1338.75
2023-04-22T08:57:11.205Z,1355.63
2023-04-22T08:58:11.354Z,1355.63
2023-04-22T08:59:11.092Z,1378.13
2023-04-22T09:00:11.180Z,1383.75
2023-04-22T09:01:11.050Z,1389.38
2023-04-22T09:02:11.005Z,1411.88
2023-04-22T09:03:11.300Z,1406.25
2023-04-22T09:04:11.353Z,1428.75
2023-04-22T09:05:11.005Z,1473.75
2023-04-22T09:06:10.817Z,1704.38
2023-04-22T09:07:11.012Z,2340.00
2023-04-22T09:08:10.741Z,2851.88
2023-04-22T09:09:10.840Z,3093.75
2023-04-22T09:10:10.705Z,3082.50
2023-04-22T09:11:10.835Z,3307.50
2023-04-22T09:12:10.588Z,3408.75
2023-04-22T09:13:10.641Z,3498.75
2023-04-22T09:14:10.512Z,3549.38
2023-04-22T09:15:10.650Z,3577.50
2023-04-22T09:16:10.733Z,3594.38
2023-04-22T09:17:10.670Z,3549.38
2023-04-22T09:18:10.462Z,2733.75
2023-04-22T09:19:10.322Z,3723.75
2023-04-22T09:20:10.321Z,3712.50
2023-04-22T09:21:10.518Z,3729.38
2023-04-22T09:22:10.239Z,3999.38
2023-04-22T09:23:10.299Z,4016.25
2023-04-22T09:24:10.144Z,4055.63
2023-04-22T09:25:10.368Z,3858.75
2023-04-22T09:26:10.324Z,3988.13
2023-04-22T09:27:10.039Z,3690.00
2023-04-22T09:28:10.135Z,3695.63
2023-04-22T09:29:09.971Z,4095.00
2023-04-22T09:30:10.153Z,4224.38
2023-04-22T09:31:09.906Z,4528.13
2023-04-22T09:32:10.008Z,4483.13
2023-04-22T09:33:10.057Z,4348.13
2023-04-22T09:34:09.786Z,4410.00
2023-04-22T09:35:10.004Z,4516.88
2023-04-22T09:36:09.832Z,4269.38
2023-04-22T09:37:09.687Z,4044.38
2023-04-22T09:38:09.809Z,4303.13
2023-04-22T09:39:09.623Z,4511.25
2023-04-22T09:40:09.812Z,4601.25
2023-04-22T09:41:09.549Z,4460.63
2023-04-22T09:42:09.627Z,4443.75
2023-04-22T09:43:09.683Z,4196.25
2023-04-22T09:44:09.634Z,4044.38
2023-04-22T09:45:09.460Z,3971.25
2023-04-22T09:46:09.677Z,4207.50
2023-04-22T09:47:09.512Z,4685.63
2023-04-22T09:48:09.502Z,4764.38
2023-04-22T09:49:09.288Z,4702.50
2023-04-22T09:50:09.500Z,4528.13
2023-04-22T09:51:09.222Z,4674.38
2023-04-22T09:52:10.313Z,1963.13
2023-04-22T09:53:20.319Z,4651.88
2023-04-22T09:54:16.415Z,4876.88
2023-04-22T09:55:16.899Z,5158.13
2023-04-22T09:56:09.313Z,4561.88
2023-04-22T09:57:09.027Z,4145.63
2023-04-22T09:58:09.137Z,3926.25
2023-04-22T09:59:09.188Z,3594.38
2023-04-22T10:00:08.941Z,4471.88
2023-04-22T10:01:08.907Z,4331.25
2023-04-22T10:02:08.981Z,2469.38
2023-04-22T10:03:10.699Z,3903.75
2023-04-22T10:04:09.034Z,2047.50
2023-04-22T10:05:08.937Z,1800.00
2023-04-22T10:06:08.744Z,3054.38
2023-04-22T10:07:08.701Z,5011.88
2023-04-22T10:08:08.869Z,5259.38
2023-04-22T10:09:09.635Z,2778.75
2023-04-22T10:10:08.806Z,2795.63
2023-04-22T10:11:08.863Z,4393.13
2023-04-22T10:12:08.542Z,2610.00
2023-04-22T10:13:08.642Z,2497.50
2023-04-22T10:14:08.480Z,3166.88
2023-04-22T10:15:08.634Z,2784.38
2023-04-22T10:16:08.415Z,2626.88
2023-04-22T10:17:08.714Z,2716.88
2023-04-22T10:18:08.471Z,2992.50
2023-04-22T10:19:08.317Z,2891.25
2023-04-22T10:20:08.468Z,3234.38
2023-04-22T10:21:08.242Z,3476.25
2023-04-22T10:22:08.482Z,2649.38
2023-04-22T10:23:08.538Z,2761.88
2023-04-22T10:24:08.140Z,2570.63
2023-04-22T10:25:08.297Z,4753.13
2023-04-22T10:26:08.075Z,4826.25
2023-04-22T10:27:08.391Z,5338.13
2023-04-22T10:28:08.009Z,2896.88
2023-04-22T10:29:08.122Z,2773.13
2023-04-22T10:30:07.946Z,2941.88
2023-04-22T10:31:08.163Z,3116.25
2023-04-22T10:32:09.121Z,3076.88
2023-04-22T10:33:07.963Z,2756.25
2023-04-22T10:34:07.803Z,2773.13
2023-04-22T10:35:08.165Z,2835.00
2023-04-22T10:36:07.978Z,3605.63
2023-04-22T10:37:07.714Z,3684.38
2023-04-22T10:38:07.780Z,3436.88
2023-04-22T10:39:07.637Z,3200.63
2023-04-22T10:40:07.808Z,4185.00
2023-04-22T10:41:07.611Z,4618.13
2023-04-22T10:42:07.546Z,4702.50
2023-04-22T10:43:07.610Z,4854.38
2023-04-22T10:44:07.473Z,5338.13
2023-04-22T10:45:07.637Z,4359.38
2023-04-22T10:46:07.435Z,6485.63
2023-04-22T10:47:07.847Z,3330.00
2023-04-22T10:48:07.414Z,2373.75
2023-04-22T10:49:07.299Z,2345.63
2023-04-22T10:50:07.464Z,3369.38
2023-04-22T10:51:07.243Z,3093.75
2023-04-22T10:52:07.473Z,6075.00
2023-04-22T10:53:07.177Z,3166.88
2023-04-22T10:54:07.130Z,2053.13
2023-04-22T10:55:07.111Z,2002.50
2023-04-22T10:56:07.299Z,2064.38
2023-04-22T10:57:07.030Z,2086.88
2023-04-22T10:58:07.107Z,2081.25
2023-04-22T10:59:07.187Z,2120.63
2023-04-22T11:00:06.951Z,2148.75
2023-04-22T11:01:07.165Z,4798.13
2023-04-22T11:02:06.906Z,2205.00
2023-04-22T11:03:07.027Z,2300.63
2023-04-22T11:04:06.858Z,2728.13
2023-04-22T11:05:06.954Z,2210.63
2023-04-22T11:06:06.980Z,2092.50
2023-04-22T11:07:06.688Z,2041.88
2023-04-22T11:08:06.780Z,2002.50
2023-04-22T11:09:06.618Z,1946.25
2023-04-22T11:10:06.806Z,1890.00
2023-04-22T11:11:06.846Z,1890.00
2023-04-22T11:12:06.546Z,1929.38
2023-04-22T11:13:06.610Z,1980.00
2023-04-22T11:14:06.440Z,1996.88
2023-04-22T11:15:06.628Z,2064.38
2023-04-22T11:16:06.426Z,2143.13
2023-04-22T11:17:06.323Z,2345.63
2023-04-22T11:18:06.300Z,2525.63
2023-04-22T11:19:06.444Z,2340.00
2023-04-22T11:20:06.226Z,2013.75
2023-04-22T11:21:06.489Z,1822.50
2023-04-22T11:22:06.319Z,1659.38
2023-04-22T11:23:06.116Z,1507.50
2023-04-22T11:24:06.073Z,1366.88
2023-04-22T11:25:06.328Z,1299.38
2023-04-22T11:26:06.023Z,1254.38
2023-04-22T11:27:06.157Z,1209.38
2023-04-22T11:28:05.957Z,1198.13
2023-04-22T11:29:05.892Z,1220.63
2023-04-22T11:30:05.860Z,1265.63
2023-04-22T11:31:05.923Z,1361.25
2023-04-22T11:32:05.782Z,1490.63
2023-04-22T11:33:05.932Z,1608.75
2023-04-22T11:34:05.996Z,1726.88
2023-04-22T11:35:05.705Z,1766.25
2023-04-22T11:36:05.756Z,1755.00
2023-04-22T11:37:05.596Z,1771.88
2023-04-22T11:38:05.793Z,1771.88
2023-04-22T11:39:05.508Z,1777.50
2023-04-22T11:40:20.867Z,1816.88
2023-04-22T11:41:05.436Z,1951.88
2023-04-22T11:42:05.591Z,2131.88
2023-04-22T11:43:05.355Z,2216.25
2023-04-22T11:44:05.616Z,2497.50
2023-04-22T11:45:05.274Z,3864.38
2023-04-22T11:46:05.647Z,2823.75
2023-04-22T11:47:05.203Z,4196.25
2023-04-22T11:48:05.431Z,4275.00
2023-04-22T11:49:05.129Z,5911.88
2023-04-22T11:50:05.239Z,4995.00
2023-04-22T11:51:05.060Z,5180.63
2023-04-22T11:52:05.258Z,3375.00
2023-04-22T11:53:04.981Z,6165.00
2023-04-22T11:54:05.065Z,3358.13
2023-04-22T11:55:04.919Z,5951.25
2023-04-22T11:56:05.085Z,4151.25
2023-04-22T11:57:04.855Z,3661.88
2023-04-22T11:58:05.092Z,5242.50
2023-04-22T11:59:04.802Z,5737.50
2023-04-22T12:00:05.017Z,5675.63
2023-04-22T12:01:04.705Z,5883.75
2023-04-22T12:02:04.862Z,5304.38
2023-04-22T12:03:04.764Z,3695.63
2023-04-22T12:04:05.131Z,3555.00
2023-04-22T12:05:04.574Z,2581.88
2023-04-22T12:06:04.772Z,2424.38
2023-04-22T12:07:04.500Z,2604.38
2023-04-22T12:08:04.657Z,2278.13
2023-04-22T12:09:04.439Z,2413.13
2023-04-22T12:10:04.666Z,2407.50
2023-04-22T12:11:04.519Z,2598.75
2023-04-22T12:12:04.501Z,2874.38
2023-04-22T12:13:04.298Z,3172.50
2023-04-22T12:14:04.492Z,2739.38
2023-04-22T12:15:04.233Z,2868.75
2023-04-22T12:16:04.531Z,5506.88
2023-04-22T12:17:04.250Z,3538.13
2023-04-22T12:18:04.317Z,3037.50
2023-04-22T12:19:04.102Z,3026.25
2023-04-22T12:20:04.332Z,3819.38
2023-04-22T12:21:04.037Z,2711.25
2023-04-22T12:22:04.374Z,2413.13
2023-04-22T12:23:03.966Z,2340.00
2023-04-22T12:24:04.155Z,3892.50
2023-04-22T12:25:03.961Z,2390.63
2023-04-22T12:26:04.175Z,2458.13
2023-04-22T12:27:03.892Z,2739.38
2023-04-22T12:28:03.796Z,2475.00
2023-04-22T12:29:03.762Z,2413.13
2023-04-22T12:30:04.005Z,3296.25
2023-04-22T12:31:03.739Z,5180.63
2023-04-22T12:32:03.694Z,4359.38
2023-04-22T12:33:03.814Z,3836.25
2023-04-22T12:34:03.619Z,2992.50
2023-04-22T12:35:03.571Z,2266.88
2023-04-22T12:36:03.641Z,2115.00
2023-04-22T12:37:03.490Z,1884.38
2023-04-22T12:38:04.074Z,1698.75
2023-04-22T12:39:03.424Z,1732.50
2023-04-22T12:40:03.386Z,1710.00
2023-04-22T12:41:03.470Z,1676.25